Time;durP1;ratioP1;P1;durP2;ratioP2;P2;SDS_P1;SDS_P2;PMS_P1;PMS_P2;Temp;Humidity;BMP_temperature;BMP_pressure;BME280_temperature;BME280_humidity;BME280_pressure;Samples;Min_cycle;Max_cycle;Signal;HPM_P1;HPM_P2
2021/12/23 00:02:22;;;;;;;36.23;18.53;;;-5.30;99.90;;;;;;4915832;29;20601;-76
2021/12/23 00:04:48;;;;;;;44.10;18.40;;;-5.30;99.90;;;;;;4915532;29;20551;-76
2021/12/23 00:07:13;;;;;;;45.77;19.43;;;-5.30;99.90;;;;;;4915730;29;20200;-75
2021/12/23 00:10:05;;;;;;;41.70;19.40;;;-5.20;99.90;;;;;;4915894;29;20640;-75
2021/12/23 00:12:24;;;;;;;41.43;19.53;;;-5.10;99.90;;;;;;4915645;29;20210;-76
2021/12/23 00:14:51;;;;;;;39.47;19.60;;;-5.10;99.90;;;;;;4915436;29;20425;-77
2021/12/23 00:17:39;;;;;;;44.10;20.47;;;-5.10;99.90;;;;;;4916040;29;20527;-76
2021/12/23 00:25:17;;;;;;;43.10;18.90;;;-5.00;99.90;;;;;;4915264;29;20489;-75
2021/12/23 00:27:42;;;;;;;48.83;19.60;;;-5.00;99.90;;;;;;4916066;29;20401;-76
2021/12/23 00:30:08;;;;;;;48.47;21.23;;;-5.00;99.90;;;;;;4921854;29;20224;-76
2021/12/23 00:32:34;;;;;;;44.60;18.37;;;-5.00;99.90;;;;;;4916945;29;20228;-75
2021/12/23 00:34:59;;;;;;;46.53;20.60;;;-5.10;99.90;;;;;;4914908;29;20602;-76
2021/12/23 00:37:25;;;;;;;41.80;19.20;;;-5.10;99.90;;;;;;4915468;29;20616;-77
2021/12/23 00:39:52;;;;;;;46.73;20.10;;;-5.20;99.90;;;;;;4915551;29;20184;-76
2021/12/23 00:42:17;;;;;;;47.17;19.20;;;-5.30;99.90;;;;;;4915470;29;20203;-76
2021/12/23 00:44:47;;;;;;;54.03;19.57;;;-5.30;99.90;;;;;;4915566;29;20400;-76
2021/12/23 00:47:14;;;;;;;42.83;20.63;;;-5.30;99.90;;;;;;4915980;29;20819;-74
2021/12/23 00:49:40;;;;;;;43.60;18.40;;;-5.40;99.90;;;;;;4915704;29;20458;-75
2021/12/23 00:52:08;;;;;;;41.07;17.63;;;-5.40;99.90;;;;;;4916140;29;20434;-76
2021/12/23 00:54:34;;;;;;;41.43;19.30;;;-5.40;99.90;;;;;;4916696;29;20485;-74
2021/12/23 00:57:00;;;;;;;36.57;17.20;;;-5.40;99.90;;;;;;4917051;29;20430;-76
2021/12/23 00:59:26;;;;;;;43.77;18.67;;;-5.40;99.90;;;;;;4915747;29;20410;-75
2021/12/23 05:31:41;;;;;;;35.33;17.10;;;-2.80;99.90;;;;;;5439875;23;21032;-75
2021/12/23 05:34:06;;;;;;;31.97;16.07;;;-2.80;99.90;;;;;;4897567;29;20413;-75
2021/12/23 05:36:32;;;;;;;32.10;16.03;;;-2.90;99.90;;;;;;4899570;29;20246;-76
2021/12/23 05:38:58;;;;;;;33.20;16.00;;;-2.90;99.90;;;;;;4899936;29;20179;-73
2021/12/23 05:41:26;;;;;;;35.67;16.97;;;-2.90;99.90;;;;;;4899528;29;20311;-73
2021/12/23 05:43:56;;;;;;;36.70;16.83;;;-2.90;99.90;;;;;;4900741;29;20682;-73
2021/12/23 05:46:23;;;;;;;33.67;17.40;;;-2.90;99.90;;;;;;4889033;29;20440;-74
2021/12/23 05:48:48;;;;;;;34.17;17.70;;;-2.90;99.90;;;;;;4880874;29;20492;-74
2021/12/23 05:51:14;;;;;;;33.97;17.43;;;-2.90;99.90;;;;;;4880723;29;20854;-73
2021/12/23 05:53:39;;;;;;;38.27;19.67;;;-3.00;99.90;;;;;;4884632;29;20239;-73
2021/12/23 05:56:05;;;;;;;49.77;20.53;;;-3.00;99.90;;;;;;4897351;29;20239;-73
2021/12/23 05:58:31;;;;;;;34.80;15.53;;;-3.10;99.90;;;;;;4899061;29;20191;-73
2021/12/23 06:00:57;;;;;;;39.40;17.87;;;-3.10;99.90;;;;;;4899032;29;20417;-73
2021/12/23 06:03:24;;;;;;;38.60;17.20;;;-3.20;99.90;;;;;;4898734;29;20191;-74
2021/12/23 06:05:49;;;;;;;29.50;17.23;;;-3.20;99.90;;;;;;4899199;29;20510;-74
2021/12/23 06:08:15;;;;;;;36.57;17.07;;;-3.30;99.90;;;;;;4899139;29;20485;-73
2021/12/23 06:10:40;;;;;;;46.33;19.20;;;-3.30;99.90;;;;;;4898992;29;20207;-73
2021/12/23 06:13:06;;;;;;;33.33;17.20;;;-3.40;99.90;;;;;;4898867;29;20619;-74
2021/12/23 06:15:31;;;;;;;36.03;17.80;;;-3.50;99.90;;;;;;4899275;29;20183;-73
2021/12/23 06:17:57;;;;;;;35.03;16.57;;;-3.50;99.90;;;;;;4899100;29;20232;-73
2021/12/23 06:20:23;;;;;;;37.87;16.33;;;-3.60;99.90;;;;;;4898948;29;20179;-73
2021/12/23 06:22:48;;;;;;;38.40;16.23;;;-3.70;99.90;;;;;;4896983;29;20213;-73
2021/12/23 06:25:14;;;;;;;30.87;16.23;;;-3.80;99.90;;;;;;4898708;29;20187;-73
2021/12/23 06:27:40;;;;;;;37.77;15.60;;;-3.70;99.90;;;;;;4897479;29;20270;-73
2021/12/23 06:32:42;;;;;;;35.10;15.77;;;-3.80;99.90;;;;;;4898509;29;20524;-73
2021/12/23 06:35:08;;;;;;;33.73;16.87;;;-3.80;99.90;;;;;;4898670;29;20556;-74
2021/12/23 06:37:33;;;;;;;36.57;17.33;;;-3.90;99.90;;;;;;4899040;29;20657;-72
2021/12/23 06:39:59;;;;;;;41.67;16.80;;;-3.90;99.90;;;;;;4898663;29;20390;-72
2021/12/23 06:42:27;;;;;;;41.43;17.37;;;-3.90;99.90;;;;;;4894544;29;20218;-73
2021/12/23 06:44:52;;;;;;;37.93;17.60;;;-3.90;99.90;;;;;;4890573;29;20720;-74
2021/12/23 06:47:18;;;;;;;45.83;17.40;;;-3.90;99.90;;;;;;4898229;29;20550;-74
2021/12/23 06:49:43;;;;;;;37.57;17.47;;;-3.90;99.90;;;;;;4898028;29;20236;-74
2021/12/23 06:52:10;;;;;;;33.90;16.10;;;-3.80;99.90;;;;;;4897840;29;20573;-74
2021/12/23 06:54:41;;;;;;;36.57;15.87;;;-3.80;99.90;;;;;;4897798;29;20183;-73
2021/12/23 06:57:07;;;;;;;42.40;16.70;;;-3.70;99.90;;;;;;4897904;29;20405;-74
2021/12/23 06:59:33;;;;;;;31.43;15.27;;;-3.70;99.90;;;;;;4897828;29;20423;-74
2021/12/23 07:01:58;;;;;;;33.73;15.97;;;-3.70;99.90;;;;;;4897725;29;20306;-74
2021/12/23 07:04:29;;;;;;;31.27;15.93;;;-3.70;99.90;;;;;;4897838;29;20233;-74
2021/12/23 07:07:24;;;;;;;42.13;16.57;;;-3.70;99.90;;;;;;4898378;29;20199;-74
2021/12/23 07:09:50;;;;;;;42.17;18.33;;;-3.80;99.90;;;;;;4892540;29;20449;-74
2021/12/23 07:12:15;;;;;;;34.17;15.50;;;-3.80;99.90;;;;;;4894025;29;20454;-73
2021/12/23 07:14:41;;;;;;;33.83;16.80;;;-3.70;99.90;;;;;;4896184;29;20214;-75
2021/12/23 07:17:07;;;;;;;33.50;16.40;;;-3.60;99.90;;;;;;4897925;29;20246;-75
2021/12/23 07:19:34;;;;;;;34.60;16.40;;;-3.50;99.90;;;;;;4897390;29;20407;-76
2021/12/23 07:22:01;;;;;;;46.03;17.60;;;-3.40;99.90;;;;;;4897372;29;20825;-77
2021/12/23 07:24:27;;;;;;;32.90;16.70;;;-3.40;99.90;;;;;;4897373;29;20452;-74
2021/12/23 07:26:52;;;;;;;35.20;17.07;;;-3.40;99.90;;;;;;4898417;29;20439;-75
2021/12/23 07:29:18;;;;;;;44.30;16.77;;;-3.40;99.90;;;;;;4898432;29;20600;-75
2021/12/23 07:31:43;;;;;;;43.97;19.10;;;-3.40;99.90;;;;;;4897668;29;20214;-75
2021/12/23 07:34:09;;;;;;;38.17;18.27;;;-3.40;99.90;;;;;;4896996;29;20282;-75
2021/12/23 07:36:35;;;;;;;38.47;18.30;;;-3.40;99.90;;;;;;4897786;29;20184;-75
2021/12/23 07:39:05;;;;;;;38.73;16.97;;;-3.40;99.90;;;;;;4895516;29;20216;-74
2021/12/23 07:41:31;;;;;;;40.17;16.27;;;-3.40;99.90;;;;;;4896080;29;20466;-76
2021/12/23 07:44:03;;;;;;;41.77;18.57;;;-3.40;99.90;;;;;;4897389;29;20883;-75
2021/12/23 07:46:32;;;;;;;33.93;17.03;;;-3.40;99.90;;;;;;4897645;29;20179;-75
2021/12/23 07:48:58;;;;;;;38.20;15.93;;;-3.40;99.90;;;;;;4902060;29;20504;-75
2021/12/23 07:51:24;;;;;;;39.43;17.53;;;-3.30;99.90;;;;;;4897957;29;20409;-75
2021/12/23 07:53:50;;;;;;;37.83;18.50;;;-3.30;99.90;;;;;;4897234;29;20237;-77
2021/12/23 07:56:16;;;;;;;34.57;16.33;;;-3.20;99.90;;;;;;4897599;29;20826;-74
2021/12/23 07:58:41;;;;;;;37.57;17.77;;;-3.20;99.90;;;;;;4897381;29;20521;-73
2021/12/23 08:01:07;;;;;;;39.50;17.47;;;-3.20;99.90;;;;;;4896873;29;20715;-75
2021/12/23 08:03:33;;;;;;;39.40;19.30;;;-3.10;99.90;;;;;;4896821;29;20186;-74
2021/12/23 08:05:58;;;;;;;44.43;18.90;;;-3.00;99.90;;;;;;4897396;29;20606;-75
2021/12/23 08:08:24;;;;;;;32.77;18.03;;;-3.00;99.90;;;;;;4896842;29;20581;-74
2021/12/23 08:10:50;;;;;;;39.53;17.93;;;-2.80;99.90;;;;;;4896804;29;20202;-74
2021/12/23 08:13:16;;;;;;;38.97;20.03;;;-2.70;99.90;;;;;;4894950;29;20648;-75
2021/12/23 08:15:42;;;;;;;38.40;19.93;;;-2.50;99.90;;;;;;4896881;29;20767;-74
2021/12/23 08:18:08;;;;;;;37.10;17.80;;;-2.30;99.90;;;;;;4896754;29;20418;-75
2021/12/23 08:20:34;;;;;;;36.33;17.77;;;-2.20;99.90;;;;;;4896741;29;20443;-76
2021/12/23 08:22:59;;;;;;;37.63;18.33;;;-1.90;99.90;;;;;;4896314;29;20201;-75
2021/12/23 08:25:25;;;;;;;32.83;15.67;;;-1.80;99.90;;;;;;4896784;29;20189;-74
2021/12/23 08:27:51;;;;;;;39.60;17.03;;;-1.70;99.90;;;;;;4896811;29;20198;-75
2021/12/23 08:30:18;;;;;;;33.63;17.07;;;-1.50;99.90;;;;;;4896126;29;20445;-75
2021/12/23 08:32:45;;;;;;;42.03;20.50;;;-1.30;99.90;;;;;;4896162;29;20216;-76
2021/12/23 08:35:12;;;;;;;34.70;17.67;;;-1.20;99.90;;;;;;4895273;29;20462;-77
2021/12/23 08:37:39;;;;;;;37.30;16.70;;;-0.90;99.90;;;;;;4896724;29;20429;-75
2021/12/23 08:40:07;;;;;;;35.10;16.73;;;-0.80;99.90;;;;;;4896504;29;20399;-76
2021/12/23 08:42:34;;;;;;;32.50;16.10;;;-0.60;99.90;;;;;;4895983;29;20522;-77
2021/12/23 08:44:59;;;;;;;38.90;19.07;;;-0.60;99.90;;;;;;4896142;29;20394;-73
2021/12/23 08:47:25;;;;;;;38.00;18.00;;;-0.50;99.90;;;;;;4895620;29;20883;-75
2021/12/23 08:49:51;;;;;;;45.17;22.00;;;-0.50;99.90;;;;;;4896118;29;20564;-74
2021/12/23 08:52:16;;;;;;;40.37;19.70;;;-0.40;99.90;;;;;;4895863;29;20675;-74
2021/12/23 08:54:42;;;;;;;39.87;19.70;;;-0.40;99.90;;;;;;4896063;29;20182;-74
2021/12/23 08:57:09;;;;;;;37.67;18.83;;;-0.40;99.90;;;;;;4896216;29;20777;-74
2021/12/23 08:59:35;;;;;;;37.10;17.10;;;-0.30;99.90;;;;;;4896037;29;20459;-74
2021/12/23 09:02:01;;;;;;;39.00;21.10;;;-0.10;99.90;;;;;;4894705;29;20490;-73
2021/12/23 09:04:27;;;;;;;42.37;20.03;;;0.00;99.90;;;;;;4894552;29;20182;-73
2021/12/23 09:06:52;;;;;;;34.50;18.27;;;0.20;99.90;;;;;;4896613;29;20393;-73
2021/12/23 09:09:19;;;;;;;41.20;17.20;;;0.30;99.90;;;;;;4895947;29;20533;-74
2021/12/23 09:11:46;;;;;;;38.73;17.77;;;0.40;99.90;;;;;;4895979;29;20202;-73
2021/12/23 09:14:11;;;;;;;32.30;16.87;;;0.60;99.90;;;;;;4895601;29;20867;-74
2021/12/23 09:16:38;;;;;;;35.83;17.30;;;0.80;99.90;;;;;;4896286;29;20383;-72
2021/12/23 09:19:04;;;;;;;34.87;18.00;;;0.80;99.90;;;;;;4896248;29;20182;-72
2021/12/23 09:21:30;;;;;;;35.20;19.50;;;0.80;99.90;;;;;;4893096;29;20427;-73
2021/12/23 09:23:56;;;;;;;34.73;16.17;;;0.80;99.90;;;;;;4889266;29;21039;-73
2021/12/23 09:26:22;;;;;;;37.73;19.53;;;0.90;99.90;;;;;;4893129;29;20188;-74
2021/12/23 09:29:05;;;;;;;37.70;17.77;;;0.90;99.90;;;;;;4895384;29;20683;-74
2021/12/23 09:34:15;;;;;;;37.10;17.93;;;0.80;99.90;;;;;;4890269;29;20487;-74
2021/12/23 09:36:40;;;;;;;36.90;18.00;;;0.80;99.90;;;;;;4894504;29;20489;-74
2021/12/23 09:39:08;;;;;;;37.00;17.60;;;0.80;99.90;;;;;;4895618;29;20187;-74
2021/12/23 09:41:38;;;;;;;33.03;17.83;;;0.90;99.90;;;;;;4895236;29;20215;-74
2021/12/23 09:44:05;;;;;;;35.57;17.60;;;1.00;99.90;;;;;;4896545;29;20401;-74
2021/12/23 09:46:34;;;;;;;27.67;16.40;;;1.00;99.90;;;;;;4896651;29;20412;-74
2021/12/23 09:49:00;;;;;;;35.77;18.07;;;1.10;99.90;;;;;;4895354;29;20550;-74
2021/12/23 09:51:29;;;;;;;35.40;17.67;;;1.20;99.90;;;;;;4894850;29;20451;-74
2021/12/23 09:53:58;;;;;;;34.47;16.70;;;1.20;99.90;;;;;;4892854;29;20419;-74
2021/12/23 09:56:25;;;;;;;35.97;17.27;;;1.30;99.90;;;;;;4891543;29;20402;-73
2021/12/23 09:58:51;;;;;;;34.03;16.87;;;1.30;99.90;;;;;;4897726;29;20485;-74
2021/12/23 10:01:17;;;;;;;35.63;17.10;;;1.40;99.90;;;;;;4898615;29;21023;-73
2021/12/23 10:03:42;;;;;;;39.63;19.00;;;1.40;99.90;;;;;;4896769;29;20230;-73
2021/12/23 10:06:09;;;;;;;38.40;19.47;;;1.50;99.90;;;;;;4897158;29;20685;-74
2021/12/23 10:08:35;;;;;;;43.20;19.00;;;1.50;99.90;;;;;;4897834;29;20246;-74
2021/12/23 10:11:14;;;;;;;35.77;18.27;;;1.50;99.90;;;;;;4897854;29;20482;-74
2021/12/23 10:38:27;;;;;;;35.50;18.03;;;2.20;99.90;;;;;;4899011;29;20565;-73
2021/12/23 10:40:58;;;;;;;32.90;18.13;;;2.30;99.90;;;;;;4898585;29;20436;-74
2021/12/23 10:43:35;;;;;;;36.50;17.87;;;2.30;99.90;;;;;;4881534;29;20442;-74
2021/12/23 10:46:22;;;;;;;30.93;16.50;;;2.40;99.90;;;;;;4898560;29;20760;-74
2021/12/23 10:52:01;;;;;;;49.50;19.33;;;2.50;99.90;;;;;;4898064;29;20432;-72
2021/12/23 11:00:41;;;;;;;40.50;19.83;;;2.60;99.90;;;;;;4897013;29;21189;-74
2021/12/23 11:03:19;;;;;;;36.53;16.63;;;2.70;99.90;;;;;;4896574;29;20392;-74
2021/12/23 11:05:57;;;;;;;35.27;16.67;;;2.80;99.90;;;;;;4897590;29;20772;-74
2021/12/23 11:08:32;;;;;;;39.57;20.27;;;2.90;99.90;;;;;;4897536;29;20422;-74
2021/12/23 11:11:22;;;;;;;35.33;17.53;;;3.00;99.90;;;;;;4897924;29;20447;-74
2021/12/23 11:28:32;;;;;;;36.83;17.40;;;3.30;99.90;;;;;;4897922;29;20400;-74
2021/12/23 11:36:32;;;;;;;37.90;18.93;;;3.50;99.90;;;;;;4897570;29;20421;-74
2021/12/23 11:43:57;;;;;;;42.87;17.77;;;3.60;99.90;;;;;;4897665;29;20425;-74
2021/12/23 11:46:34;;;;;;;40.57;20.37;;;3.60;99.90;;;;;;4897477;29;20446;-74
2021/12/23 11:49:06;;;;;;;35.80;17.20;;;3.70;99.90;;;;;;4896277;29;20830;-74
2021/12/23 11:51:46;;;;;;;38.17;18.17;;;3.80;99.90;;;;;;4897230;29;20504;-74
2021/12/23 11:54:14;;;;;;;31.10;18.47;;;3.90;99.90;;;;;;4897279;29;20413;-74
2021/12/23 11:56:46;;;;;;;35.40;18.03;;;4.00;99.90;;;;;;4898433;29;20418;-75
2021/12/23 11:59:13;;;;;;;47.37;21.53;;;4.10;99.90;;;;;;4897894;29;20449;-74
2021/12/23 12:01:46;;;;;;;53.03;18.87;;;4.20;99.90;;;;;;4897434;29;20445;-74
2021/12/23 12:04:22;;;;;;;42.93;20.10;;;4.20;99.90;;;;;;4896133;29;20433;-74
2021/12/23 12:06:50;;;;;;;37.77;20.00;;;4.20;99.90;;;;;;4898302;29;20783;-75
2021/12/23 12:09:33;;;;;;;39.57;19.07;;;4.30;99.90;;;;;;4900860;29;20461;-74
2021/12/23 12:11:58;;;;;;;37.83;19.23;;;4.30;99.90;;;;;;4895857;29;20569;-72
2021/12/23 12:14:36;;;;;;;41.10;18.57;;;4.40;99.90;;;;;;4897462;29;20429;-72
2021/12/23 12:17:24;;;;;;;38.53;19.23;;;4.50;99.90;;;;;;4897154;29;20221;-73
2021/12/23 12:20:07;;;;;;;42.97;19.40;;;4.50;99.90;;;;;;4897145;29;20421;-73
2021/12/23 12:22:45;;;;;;;36.47;18.33;;;4.60;99.90;;;;;;4896969;29;20497;-72
2021/12/23 12:25:22;;;;;;;36.57;19.67;;;4.70;99.90;;;;;;4898331;29;20416;-73
2021/12/23 12:27:48;;;;;;;32.40;19.73;;;4.80;99.90;;;;;;4897939;29;20431;-73
2021/12/23 12:30:17;;;;;;;42.07;17.53;;;4.90;99.90;;;;;;4896369;29;20440;-74
2021/12/23 12:32:44;;;;;;;36.13;17.30;;;5.00;99.90;;;;;;4896348;29;20301;-74
2021/12/23 12:35:19;;;;;;;32.57;18.03;;;5.00;99.90;;;;;;4896376;29;20426;-73
2021/12/23 12:37:50;;;;;;;37.20;19.53;;;4.90;99.90;;;;;;4896752;29;20476;-74
2021/12/23 12:40:17;;;;;;;35.67;18.53;;;5.00;99.90;;;;;;4896754;29;20429;-73
2021/12/23 12:42:47;;;;;;;33.33;16.60;;;5.00;99.90;;;;;;4896268;29;20517;-74
2021/12/23 12:45:25;;;;;;;30.53;17.93;;;5.00;99.90;;;;;;4896426;29;20415;-73
2021/12/23 12:47:56;;;;;;;41.73;18.33;;;5.10;99.90;;;;;;4896769;29;20421;-73
2021/12/23 12:50:27;;;;;;;30.30;17.00;;;5.00;99.90;;;;;;4894996;29;20834;-74
2021/12/23 12:53:00;;;;;;;32.90;17.97;;;4.90;99.90;;;;;;4894935;29;21006;-74
2021/12/23 12:55:27;;;;;;;32.30;18.03;;;4.90;99.90;;;;;;4895436;29;20529;-74
2021/12/23 12:57:56;;;;;;;33.20;18.23;;;4.80;99.90;;;;;;4896677;29;20498;-74
2021/12/23 13:00:32;;;;;;;36.40;17.43;;;4.90;99.90;;;;;;4896210;29;20425;-74
2021/12/23 13:03:07;;;;;;;42.03;19.03;;;4.80;99.90;;;;;;4896004;29;20429;-74
2021/12/23 13:05:39;;;;;;;38.77;18.60;;;4.90;99.90;;;;;;4896543;29;20416;-74
2021/12/23 13:08:37;;;;;;;38.40;18.40;;;4.90;99.90;;;;;;4896238;29;20400;-74
2021/12/23 13:11:08;;;;;;;31.17;16.27;;;4.90;99.90;;;;;;4887177;29;20428;-74
2021/12/23 13:13:41;;;;;;;37.43;17.03;;;4.90;99.90;;;;;;4895908;29;20425;-74
2021/12/23 13:16:12;;;;;;;40.20;19.93;;;4.90;99.90;;;;;;4896326;29;20395;-74
2021/12/23 13:18:38;;;;;;;40.10;21.30;;;5.00;99.90;;;;;;4896157;29;20511;-74
2021/12/23 13:21:06;;;;;;;50.37;18.13;;;5.00;99.90;;;;;;4895894;29;20466;-74
2021/12/23 13:23:43;;;;;;;38.63;19.77;;;5.00;99.90;;;;;;4895846;29;20178;-74
2021/12/23 13:26:17;;;;;;;43.83;18.00;;;5.00;99.90;;;;;;4896513;29;20470;-74
2021/12/23 13:28:52;;;;;;;32.17;16.10;;;4.90;99.90;;;;;;4895971;29;20822;-74
2021/12/23 13:31:22;;;;;;;38.80;15.83;;;5.00;99.90;;;;;;4895518;29;20887;-74
2021/12/23 13:33:57;;;;;;;34.40;17.80;;;5.00;99.90;;;;;;4899155;29;20958;-74
2021/12/23 13:36:28;;;;;;;31.10;16.47;;;5.00;99.90;;;;;;4899767;29;20476;-75
2021/12/23 13:38:57;;;;;;;31.20;17.73;;;5.10;99.90;;;;;;4900115;29;20422;-75
2021/12/23 13:41:28;;;;;;;30.17;17.17;;;5.10;99.90;;;;;;4899288;29;20469;-75
2021/12/23 13:44:14;;;;;;;30.30;16.33;;;5.10;99.90;;;;;;4899964;29;20465;-75
2021/12/23 13:46:40;;;;;;;31.10;15.40;;;5.10;99.90;;;;;;4899781;29;20440;-74
2021/12/23 13:49:06;;;;;;;29.40;17.00;;;5.20;99.90;;;;;;4899006;29;20507;-74
2021/12/23 13:51:34;;;;;;;32.53;15.90;;;5.10;99.90;;;;;;4898184;29;20446;-75
2021/12/23 13:54:11;;;;;;;41.40;17.77;;;5.10;99.90;;;;;;4894454;29;20404;-74
2021/12/23 13:56:39;;;;;;;36.40;15.53;;;5.10;99.90;;;;;;4896383;29;20425;-74
2021/12/23 13:59:14;;;;;;;26.37;16.00;;;5.20;99.90;;;;;;4898999;29;20508;-74
2021/12/23 14:01:52;;;;;;;24.73;13.37;;;5.20;99.90;;;;;;4899225;29;20427;-75
2021/12/23 14:04:34;;;;;;;32.40;15.67;;;5.20;99.90;;;;;;4900158;29;20572;-75
2021/12/23 14:07:10;;;;;;;36.93;16.10;;;5.30;99.90;;;;;;4903723;29;20574;-74
2021/12/23 14:09:49;;;;;;;23.43;11.60;;;5.40;99.90;;;;;;4903538;29;20477;-72
2021/12/23 14:12:21;;;;;;;28.17;13.20;;;5.40;99.90;;;;;;4901083;29;20419;-73
2021/12/23 14:14:54;;;;;;;29.50;13.93;;;5.50;99.90;;;;;;4899278;29;20466;-72
2021/12/23 14:17:40;;;;;;;25.50;14.03;;;5.60;99.90;;;;;;4899346;29;20433;-72
2021/12/23 14:23:13;;;;;;;33.53;16.50;;;5.60;99.90;;;;;;4895556;29;20414;-75
2021/12/23 14:25:46;;;;;;;22.67;12.73;;;5.50;99.90;;;;;;4895960;29;20436;-75
2021/12/23 14:28:16;;;;;;;24.90;12.43;;;5.50;99.90;;;;;;4898597;29;20408;-74
2021/12/23 14:30:50;;;;;;;20.43;12.83;;;5.50;99.90;;;;;;4898045;29;20498;-75
2021/12/23 14:33:19;;;;;;;21.30;11.80;;;5.50;99.90;;;;;;4898301;29;20402;-74
2021/12/23 14:35:53;;;;;;;19.33;12.40;;;5.60;99.90;;;;;;4899028;29;20415;-74
2021/12/23 14:38:31;;;;;;;27.70;13.07;;;5.60;99.90;;;;;;4898557;29;20418;-74
2021/12/23 14:41:24;;;;;;;16.60;10.83;;;5.70;99.90;;;;;;4898376;29;20461;-74
2021/12/23 14:44:12;;;;;;;29.40;15.07;;;5.70;99.90;;;;;;4895829;29;20446;-74
2021/12/23 14:46:47;;;;;;;28.40;13.10;;;5.70;99.90;;;;;;4896819;29;20432;-74
2021/12/23 14:50:16;;;;;;;26.17;13.83;;;5.60;99.90;;;;;;4897112;29;20528;-74
2021/12/23 14:52:23;;;;;;;30.03;14.50;;;5.60;99.90;;;;;;4871669;29;20462;-73
2021/12/23 14:55:16;;;;;;;23.33;13.37;;;5.60;99.90;;;;;;4878887;29;20406;-75
2021/12/23 14:57:51;;;;;;;19.70;11.97;;;5.60;99.90;;;;;;4876862;29;20462;-74
2021/12/23 15:00:28;;;;;;;18.50;10.77;;;5.60;99.90;;;;;;4879082;29;20840;-76
2021/12/23 15:03:03;;;;;;;15.00;8.90;;;5.70;99.90;;;;;;4880449;29;20417;-74
2021/12/23 15:05:30;;;;;;;11.67;7.80;;;5.80;99.90;;;;;;4880192;29;20479;-75
2021/12/23 15:08:03;;;;;;;15.57;8.90;;;5.80;99.90;;;;;;4879732;29;20434;-74
2021/12/23 15:10:37;;;;;;;13.90;8.80;;;5.90;99.90;;;;;;4878981;29;20494;-74
2021/12/23 15:13:30;;;;;;;18.33;10.60;;;5.90;99.90;;;;;;4879176;29;20416;-74
2021/12/23 15:15:57;;;;;;;17.97;10.23;;;5.90;99.90;;;;;;4879445;29;20492;-75
2021/12/23 15:21:32;;;;;;;20.27;9.90;;;5.80;99.90;;;;;;4894802;29;20409;-75
2021/12/23 15:23:58;;;;;;;20.30;10.80;;;5.70;99.90;;;;;;4894138;29;20510;-74
2021/12/23 15:26:35;;;;;;;22.30;12.57;;;5.60;99.90;;;;;;4896417;29;20506;-74
2021/12/23 15:29:14;;;;;;;20.70;11.20;;;5.60;99.90;;;;;;4896268;29;20442;-75
2021/12/23 15:31:44;;;;;;;16.67;8.37;;;5.50;99.90;;;;;;4895019;29;21023;-75
2021/12/23 15:34:11;;;;;;;9.13;5.57;;;5.50;99.90;;;;;;4893822;29;21005;-74
2021/12/23 15:36:39;;;;;;;8.00;6.43;;;5.60;99.90;;;;;;4896558;29;20505;-76
2021/12/23 15:39:15;;;;;;;10.57;5.80;;;5.70;99.90;;;;;;4895827;29;20439;-75
2021/12/23 15:41:40;;;;;;;7.60;6.00;;;5.80;99.90;;;;;;4895777;29;20488;-71
2021/12/23 15:44:06;;;;;;;8.83;5.60;;;6.00;99.90;;;;;;4892240;29;20456;-74
2021/12/23 15:46:31;;;;;;;8.90;4.90;;;6.10;99.90;;;;;;4893608;29;20200;-74
2021/12/23 15:48:57;;;;;;;6.83;5.00;;;6.10;99.90;;;;;;4893841;29;20305;-74
2021/12/23 15:51:22;;;;;;;7.17;4.23;;;6.20;99.90;;;;;;4895427;29;20236;-79
2021/12/23 15:53:48;;;;;;;10.10;5.00;;;6.20;99.90;;;;;;4894961;29;20631;-78
2021/12/23 15:56:13;;;;;;;11.20;5.73;;;6.20;99.90;;;;;;4895273;29;20863;-78
2021/12/23 15:58:43;;;;;;;9.60;5.13;;;6.30;99.90;;;;;;4895475;29;20227;-77
2021/12/23 16:01:09;;;;;;;8.30;4.93;;;6.30;99.90;;;;;;4895889;29;20286;-78
2021/12/23 16:03:37;;;;;;;9.97;5.87;;;6.30;99.90;;;;;;4895987;29;20849;-79
2021/12/23 16:08:47;;;;;;;4.80;4.13;;;6.40;99.90;;;;;;4893507;29;20451;-78
2021/12/23 16:11:12;;;;;;;9.23;5.30;;;6.30;99.90;;;;;;4891529;29;20444;-78
2021/12/23 16:13:38;;;;;;;9.00;5.03;;;6.40;99.90;;;;;;4893489;29;20187;-77
2021/12/23 16:16:04;;;;;;;6.80;5.20;;;6.40;99.90;;;;;;4895019;29;20185;-77
2021/12/23 16:18:29;;;;;;;5.83;5.00;;;6.40;99.90;;;;;;4891157;29;20277;-77
2021/12/23 16:20:55;;;;;;;6.20;5.03;;;6.40;99.90;;;;;;4893326;29;20222;-79
2021/12/23 16:23:20;;;;;;;7.77;5.97;;;6.40;99.90;;;;;;4888406;29;20279;-78
2021/12/23 16:25:46;;;;;;;9.50;5.77;;;6.40;99.90;;;;;;4887603;29;20647;-77
2021/12/23 16:28:12;;;;;;;6.20;5.60;;;6.50;99.90;;;;;;4889317;29;20193;-78
2021/12/23 16:30:38;;;;;;;8.43;5.60;;;6.50;99.90;;;;;;4887315;29;20208;-77
2021/12/23 16:33:08;;;;;;;11.50;6.33;;;6.40;99.90;;;;;;4888186;29;20490;-77
2021/12/23 16:35:41;;;;;;;7.90;5.67;;;6.30;99.90;;;;;;4888649;29;20335;-77
2021/12/23 16:38:09;;;;;;;8.20;5.03;;;6.30;99.90;;;;;;4892187;29;20422;-78
2021/12/23 16:40:39;;;;;;;9.77;6.80;;;6.30;99.90;;;;;;4890671;29;20933;-77
2021/12/23 16:43:05;;;;;;;11.37;5.57;;;6.30;99.90;;;;;;4888643;29;20480;-78
2021/12/23 16:45:31;;;;;;;9.70;6.00;;;6.20;99.90;;;;;;4892565;29;20452;-79
2021/12/23 16:47:58;;;;;;;10.73;6.60;;;6.20;99.90;;;;;;4885817;29;20507;-77
2021/12/23 16:50:24;;;;;;;18.20;8.93;;;6.20;99.90;;;;;;4888511;29;20474;-77
2021/12/23 16:52:52;;;;;;;12.13;7.90;;;6.20;99.90;;;;;;4890695;29;20433;-77
2021/12/23 16:56:14;;;;;;;9.13;6.40;;;6.20;99.90;;;;;;4888215;29;20186;-78
2021/12/23 16:58:11;;;;;;;6.77;5.83;;;6.20;99.90;;;;;;4885720;29;20975;-77
2021/12/23 17:00:38;;;;;;;6.07;4.70;;;6.20;99.90;;;;;;4891006;29;20437;-80
2021/12/23 17:03:05;;;;;;;6.37;5.20;;;6.20;99.90;;;;;;4888814;29;20434;-78
2021/12/23 17:05:33;;;;;;;12.10;5.60;;;6.20;99.90;;;;;;4892036;29;20440;-78
2021/12/23 17:07:58;;;;;;;8.87;6.23;;;6.30;99.90;;;;;;4889279;29;20488;-77
2021/12/23 17:10:26;;;;;;;10.57;6.13;;;6.20;99.90;;;;;;4885860;29;20504;-78
2021/12/23 17:12:53;;;;;;;8.33;5.87;;;6.20;99.90;;;;;;4889908;29;20210;-77
2021/12/23 17:15:18;;;;;;;8.20;6.50;;;6.20;99.90;;;;;;4887994;29;20430;-79
2021/12/23 17:17:45;;;;;;;9.43;5.60;;;6.10;99.90;;;;;;4888056;29;20949;-78
2021/12/23 17:20:29;;;;;;;9.80;6.10;;;6.10;99.90;;;;;;4890492;29;20252;-76
2021/12/23 17:22:59;;;;;;;11.10;7.30;;;6.20;99.90;;;;;;4888606;29;20457;-77
2021/12/23 17:25:25;;;;;;;11.50;6.97;;;6.20;99.90;;;;;;4885551;29;21314;-78
2021/12/23 17:27:51;;;;;;;10.97;7.27;;;6.10;99.90;;;;;;4890349;29;20456;-77
2021/12/23 17:30:18;;;;;;;10.50;6.83;;;6.10;99.90;;;;;;4887730;29;20472;-78
2021/12/23 17:32:45;;;;;;;15.63;7.83;;;6.10;99.90;;;;;;4888578;29;20976;-77
2021/12/23 17:35:11;;;;;;;19.30;7.30;;;6.10;99.90;;;;;;4892482;29;20725;-78
2021/12/23 17:37:37;;;;;;;20.13;8.07;;;6.10;99.90;;;;;;4889156;29;20432;-78
2021/12/23 17:40:04;;;;;;;10.90;7.83;;;6.10;99.90;;;;;;4892517;29;20511;-79
2021/12/23 17:42:30;;;;;;;10.77;6.77;;;6.10;99.90;;;;;;4887144;29;20211;-77
2021/12/23 17:44:55;;;;;;;9.13;7.43;;;6.00;99.90;;;;;;4890120;29;20459;-77
2021/12/23 17:47:21;;;;;;;11.07;7.30;;;6.00;99.90;;;;;;4891176;29;20199;-78
2021/12/23 17:49:47;;;;;;;13.37;7.67;;;6.00;99.90;;;;;;4895365;29;20214;-78
2021/12/23 17:52:13;;;;;;;19.13;9.13;;;6.00;99.90;;;;;;4895764;29;20869;-77
2021/12/23 17:54:39;;;;;;;10.40;7.80;;;5.80;99.90;;;;;;4895262;29;20191;-78
2021/12/23 17:57:05;;;;;;;9.70;6.87;;;5.70;99.90;;;;;;4895681;29;20444;-77
2021/12/23 17:59:32;;;;;;;9.70;7.27;;;5.70;99.90;;;;;;4897713;29;20435;-77
2021/12/23 18:01:57;;;;;;;12.70;8.53;;;5.70;99.90;;;;;;4895573;29;20297;-78
2021/12/23 18:04:25;;;;;;;14.50;8.20;;;5.70;99.90;;;;;;4895724;29;20516;-77
2021/12/23 18:06:50;;;;;;;8.60;6.70;;;5.70;99.90;;;;;;4896655;29;20305;-77
2021/12/23 18:09:16;;;;;;;11.40;5.60;;;5.50;99.90;;;;;;4895305;29;20571;-77
2021/12/23 18:11:43;;;;;;;10.77;6.80;;;5.40;99.90;;;;;;4895465;29;20251;-77
2021/12/23 18:14:13;;;;;;;13.10;6.53;;;5.40;99.90;;;;;;4894423;29;20194;-78
2021/12/23 18:16:38;;;;;;;13.60;6.73;;;5.30;99.90;;;;;;4896905;29;20451;-77
2021/12/23 18:19:04;;;;;;;13.30;7.37;;;5.30;99.90;;;;;;4897496;29;20955;-77
2021/12/23 18:21:30;;;;;;;11.40;6.73;;;5.20;99.90;;;;;;4897951;29;20232;-78
2021/12/23 18:23:56;;;;;;;11.83;7.10;;;5.10;99.90;;;;;;4898214;29;20457;-78
2021/12/23 18:26:23;;;;;;;16.60;7.63;;;5.00;99.90;;;;;;4898615;29;20237;-78
2021/12/23 18:28:49;;;;;;;10.40;6.33;;;5.00;99.90;;;;;;4895613;29;20233;-78
2021/12/23 18:31:15;;;;;;;10.97;7.67;;;5.00;99.90;;;;;;4892358;29;20572;-78
2021/12/23 18:33:42;;;;;;;12.97;7.87;;;4.80;99.90;;;;;;4893961;29;20541;-77
2021/12/23 18:36:18;;;;;;;12.77;6.40;;;4.80;99.90;;;;;;4898300;29;20306;-78
2021/12/23 18:38:44;;;;;;;9.63;7.33;;;4.80;99.90;;;;;;4894889;29;20782;-77